Blue Oak Ranch Reserve, California Weather observations

Data are for 10 minute period ending at time listed.
 Day   Time   Solar   Ave.   Ave.  Ave.  Vector  Max.   Baro.   Total    
  of    of     Rad.   Air    Rel.  Wind   Wind   Wind  Press.  Precip.   
Year   Day            Temp.  Hum.  Speed  Dir.   Gust                    
2026   (PST)  Kw/m2    F      %     mph   deg.    mph    mb.     in.     
-------------------------------------------------------------------------
 246   14:30   0.88   76.2    44    8.6   281    13.2   947.8    0.00 
 246   14:40   0.76   75.7    45    5.2   252    10.7   947.7    0.00 
 246   14:50   0.76   74.9    45    5.8   271    11.0   947.5    0.00 
 246   15:00   0.70   73.7    47    6.8   225    11.0   947.3    0.00 
 246   15:10   0.66   73.4    49    7.6   243    15.5   947.2    0.00 
 246   15:20   0.63   72.3    51    7.4   230    14.3   947.1    0.00 
 246   15:30   0.59   72.7    50    6.0   250    12.1   947.1    0.00 
 246   15:40   0.55   73.4    49    6.8   272    12.6   947.0    0.00 
 246   15:50   0.52   73.5    49    7.7   267    11.4   946.9    0.00 
 246   16:00   0.48   73.5    49    7.2   260    13.6   946.9    0.00 
 246   16:10   0.45   72.1    52    6.6   269    14.4   946.9    0.00 
 246   16:20   0.42   71.7    53   10.1   292    15.3   946.8    0.00 
 246   16:30   0.40   70.3    55    9.1   288    14.8   946.8    0.00 
 246   16:40   0.38   71.3    54    7.7   281    14.0   946.8    0.00 
 246   16:50   0.35   70.8    56    8.2   293    12.6   946.9    0.00 
 246   17:00   0.29   69.0    59    9.7   296    15.0   946.9    0.00 
 246   17:10   0.25   68.0    61    8.3   301    12.4   946.9    0.00 
 246   17:20   0.22   67.4    61   10.3   293    15.1   946.9    0.00 
 246   17:30   0.13   66.1    64    9.8   298    16.0   946.9    0.00 
 246   17:40   0.15   65.3    65    7.5   289    11.3   946.9    0.00 
 246   17:50   0.12   65.5    65    7.7   283    11.4   946.9    0.00 
 246   18:00   0.10   64.5    68    7.2   299    10.9   946.8    0.00 
 246   18:10   0.03   63.8    70    7.0   295    11.4   946.8    0.00 
 246   18:20   0.01   63.0    73    7.5   300    11.0   946.8    0.00 
 246   18:30   0.01   62.1    77    7.6   300    12.8   946.7    0.00 
 246   18:40   0.00   61.5    79    7.0   310    10.6   946.8    0.00 
 246   18:50   0.00   61.3    80    6.0   307     9.9   946.8    0.00 
 246   19:00   0.00   61.0    82    4.3   290     9.1   946.7    0.00 
 246   19:10   0.00   60.8    82    4.5   299     7.7   946.7    0.00 
 246   19:20   0.00   60.7    82    3.8   292     6.7   946.7    0.00 
 246   19:30   0.00   60.3    83    3.5   296     5.6   946.8    0.00 
 246   19:40   0.00   60.1    84    3.1   293     4.7   946.8    0.00 
 246   19:50   0.00   59.9    85    2.4   307     4.3   946.9    0.00 
 246   20:00   0.00   59.7    85    1.8   306     3.8   947.0    0.00 
 246   20:10   0.00   59.6    86    0.9   275     3.9   947.0    0.00 
 246   20:20   0.00   59.2    86    0.4   210     1.5   947.0    0.00 
 246   20:30   0.00   58.7    86    0.3   179     1.3   947.1    0.00 
 246   20:40   0.00   58.7    86    0.8   148     1.8   947.2    0.00 
 246   20:50   0.00   59.0    86    0.7   183     2.0   947.2    0.00 
 246   21:00   0.00   59.6    86    0.2   270     1.0   947.1    0.00 
 246   21:10   0.00   60.0    85    0.7   227     2.6   947.0    0.00 
 246   21:20   0.00   60.2    84    1.5   236     3.6   946.9    0.00 
 246   21:30   0.00   60.5    84    2.9   262     4.5   946.9    0.00 
 246   21:40   0.00   60.7    83    1.5   251     3.7   946.8    0.00 
 246   21:50   0.00   60.7    84    2.4   243     4.8   946.8    0.00 
 246   22:00   0.00   60.5    84    2.8   240     5.2   946.7    0.00 
 246   22:10   0.00   60.3    85    2.5   207     5.0   946.7    0.00 
 246   22:20   0.00   60.2    86    2.6   184     5.0   946.6    0.00 
 246   22:30   0.00   60.1    86    2.3   188     4.0   946.6    0.00 
 246   22:40   0.00   60.0    87    2.1   209     5.0   946.6    0.00 
 246   22:50   0.00   59.8    89    2.9   246     7.0   946.6    0.00 
 246   23:00   0.00   59.7    91    3.9   266     6.9   946.5    0.00 
 246   23:10   0.00   59.6    91    3.7   269     6.3   946.5    0.00 
 246   23:20   0.00   58.9    92    5.7   265     8.5   946.5    0.00 
 246   23:30   0.00   57.7    93    5.8   298     8.4   946.6    0.00 
 246   23:40   0.00   56.7    94    6.4   296     9.0   946.6    0.00 
 246   23:50   0.00   56.3    95    5.7   292     9.0   946.6    0.00 
 247    0:00   0.00   56.3    95    6.0   288    10.2   946.7    0.00 
 247    0:10   0.00   56.2    95    4.0   283     8.0   946.7    0.00 
 247    0:20   0.00   56.2    95    3.4   269     6.1   946.7    0.00 
 247    0:30   0.00   55.9    95    3.2   263     6.2   946.8    0.00 
 247    0:40   0.00   55.8    95    2.9   269     5.5   946.8    0.00 
 247    0:50   0.00   55.8    95    2.3   268     5.0   946.8    0.00 
 247    1:00   0.00   55.8    95    0.6   184     1.6   946.8    0.00 
 247    1:10   0.00   55.8    95    1.4   162     2.4   946.7    0.00 
 247    1:20   0.00   55.8    95    2.0   165     2.8   946.7    0.01 
 247    1:30   0.00   55.8    95    1.0   186     2.0   946.7    0.01 
 247    1:40   0.00   55.9    95    2.0   259     7.5   946.7    0.01 
 247    1:50   0.00   55.9    95    5.7   282     9.4   946.7    0.00 
 247    2:00   0.00   55.3    95    6.6   293    12.6   946.7    0.00 
 247    2:10   0.00   55.1    95    4.6   286     8.8   946.8    0.01 
 247    2:20   0.00   55.0    95    3.4   296     5.6   946.8    0.00 
 247    2:30   0.00   54.9    95    3.8   287     6.1   946.8    0.00 
 247    2:40   0.00   54.9    95    4.7   276     7.2   946.8    0.00 
 247    2:50   0.00   54.8    95    4.3   288     8.7   947.0    0.00 
 247    3:00   0.00   54.4    95    4.7   299     8.3   947.1    0.00 
 247    3:10   0.00   54.2    95    4.5   293     7.3   947.1    0.00 
 247    3:20   0.00   54.0    95    2.7   305     6.7   947.0    0.00 
 247    3:30   0.00   54.1    95    1.4   294     3.4   947.0    0.01 
 247    3:40   0.00   54.2    95    1.2   299     4.5   947.0    0.00 
 247    3:50   0.00   54.0    95    0.8   242     2.7   947.1    0.00 
 247    4:00   0.00   53.9    95    0.8   286     2.6   947.1    0.00 
 247    4:10   0.00   54.1    95    0.2   282     1.7   947.1    0.00 
 247    4:20   0.00   54.4    95    1.6   279     4.2   947.1    0.00 
 247    4:30   0.00   54.2    95    3.2   295     5.9   947.1    0.00 
 247    4:40   0.00   53.7    95    1.4   278     3.7   947.1    0.00 
 247    4:50   0.00   53.1    95    0.6   307     2.0   947.1    0.00 
 247    5:00   0.00   52.3    95    0.6     2     2.0   947.2    0.00 
 247    5:10   0.00   51.4    95    0.8    64     1.7   947.3    0.00 
 247    5:20   0.00   50.9    95    0.1    62     1.0   947.3    0.00 
 247    5:30   0.00   50.5    95    0.6   288     2.2   947.4    0.00 
 247    5:40   0.01   50.1    95    0.5   295     2.0   947.5    0.00 
 247    5:50   0.01   49.8    95    1.5    59     2.8   947.5    0.00 
 247    6:00   0.01   49.3    95    0.7   277     2.0   947.5    0.00 
 247    6:10   0.02   49.2    95    1.4   272     2.3   947.6    0.00 
 247    6:20   0.02   49.2    96    1.0    76     2.0   947.6    0.00 
 247    6:30   0.02   49.2    96    0.0    80     0.6   947.7    0.00 
 247    6:40   0.17   49.5    96    1.0   264     1.8   947.8    0.00 
 247    6:50   0.24   51.1    96    0.5   283     1.3   947.9    0.00 
 247    7:00   0.27   52.8    95    1.0   281     2.8   948.0    0.00 
 247    7:10   0.29   54.5    94    0.7   263     1.9   948.2    0.00 
 247    7:20   0.32   55.9    91    1.4    75     2.5   948.3    0.00 
 247    7:30   0.34   57.7    87    0.7    78     2.0   948.3    0.00 
 247    7:40   0.37   59.3    78    0.3   122     1.2   948.3    0.00 
 247    7:50   0.39   61.4    66    0.0    20     1.2   948.3    0.00 
 247    8:00   0.41   63.0    62    0.8   262     3.3   948.3    0.00 
 247    8:10   0.44   62.6    63    3.3   270     6.2   948.3    0.00 
 247    8:20   0.47   63.1    59    4.3   274     6.9   948.4    0.00 
 247    8:30   0.50   62.8    54    3.5   254     6.5   948.5    0.00 
 247    8:40   0.53   62.2    54    3.1   293     6.4   948.6    0.00 
 247    8:50   0.54   63.1    56    2.7   278     6.1   948.7    0.00 
 247    9:00   0.60   62.7    62    4.1   252     8.1   948.9    0.00 
 247    9:10   0.62   61.5    73    5.3   252     9.7   949.0    0.00 
 247    9:20   0.66   61.9    69    5.5   246     8.5   949.0    0.00 
 247    9:30   0.68   61.2    68    4.3   229     8.0   949.1    0.00 
 247    9:40   0.70   61.2    68    5.3   230     9.4   949.1    0.00 
 247    9:50   0.73   62.0    65    5.3   245    10.0   949.1    0.00 
 247   10:00   0.75   62.6    62    5.4   242    11.9   949.0    0.00 
 247   10:10   0.78   62.5    60    5.0   261    10.2   949.1    0.00 
 247   10:20   0.80   64.1    56    6.5   248    11.1   949.1    0.00 
 247   10:30   0.81   63.7    55    5.0   235    10.4   949.2    0.00 
 247   10:40   0.83   64.5    52    5.7   252    11.9   949.2    0.00 
 247   10:50   0.85   64.5    50    6.0   240    10.0   949.2    0.00 
 247   11:00   0.86   65.0    48    6.2   231    11.3   949.2    0.00 
 247   11:10   0.87   64.5    48    7.3   228    12.4   949.1    0.00 
 247   11:20   0.89   65.0    47    5.4   238    11.3   949.1    0.00 
 247   11:30   0.90   67.0    44    5.7   253    13.0   949.0    0.00 
 247   11:40   0.91   68.0    43    6.8   264    12.5   949.0    0.00 
 247   11:50   0.91   67.5    42    5.7   246    12.1   948.9    0.00 
 247   12:00   0.91   66.7    43    7.6   228    12.9   948.9    0.00 
 247   12:10   0.92   67.2    40    6.4   271    13.9   948.9    0.00 
 247   12:20   0.91   68.3    41    4.5   266    10.2   948.9    0.00 
 247   12:30   0.91   69.1    38    6.1   276    11.8   948.9    0.00 
 247   12:40   0.91   68.7    39    7.2   261    12.3   948.9    0.00 
 247   12:50   0.88   68.8    41    4.9   230    12.6   948.9    0.00 
 247   13:00   0.88   69.4    40    4.1   269    10.2   948.9    0.00 
 247   13:10   0.88   70.6    38    7.6   281    13.2   948.9    0.00 
 247   13:20   0.87   69.8    41    5.6   229    11.7   948.9    0.00 
 247   13:30   0.86   68.8    43    5.8   236    11.5   948.8    0.00 
 247   13:40   0.85   70.3    39    5.7   253    11.1   948.9    0.00 
 247   13:50   0.82   70.8    38    6.5   237    12.0   948.9    0.00 
 247   14:00   0.81   70.5    40    6.0   278    11.8   948.9    0.00 
 247   14:10   0.80   71.2    38    6.0   286    11.8   948.9    0.00 
 247   14:20   0.77   70.7    41    6.4   256    12.1   948.8    0.00 

Return to Blue Oak Ranch Reserve graphs page.


Western Regional Climate Center,wrcc@dri.edu